sensor_id;sensor_type;location;lat;lon;timestamp;P1;durP1;ratioP1;P2;durP2;ratioP2
17592;SDS011;8915;51.760;14.300;2024-03-23T00:53:04;22.17;;;13.33;;
17592;SDS011;8915;51.760;14.300;2024-03-23T00:55:31;22.47;;;13.33;;
17592;SDS011;8915;51.760;14.300;2024-03-23T00:57:57;22.00;;;13.40;;
17592;SDS011;8915;51.760;14.300;2024-03-23T01:00:22;23.80;;;12.37;;
17592;SDS011;8915;51.760;14.300;2024-03-23T01:02:49;19.87;;;11.50;;
17592;SDS011;8915;51.760;14.300;2024-03-23T01:05:14;21.10;;;11.70;;
17592;SDS011;8915;51.760;14.300;2024-03-23T01:07:41;21.90;;;10.80;;
17592;SDS011;8915;51.760;14.300;2024-03-23T01:10:08;17.30;;;10.70;;
17592;SDS011;8915;51.760;14.300;2024-03-23T01:12:34;18.37;;;11.23;;
17592;SDS011;8915;51.760;14.300;2024-03-23T01:15:00;23.53;;;10.53;;
17592;SDS011;8915;51.760;14.300;2024-03-23T01:17:26;18.93;;;10.83;;
17592;SDS011;8915;51.760;14.300;2024-03-23T01:19:52;20.37;;;10.67;;
17592;SDS011;8915;51.760;14.300;2024-03-23T01:22:18;20.67;;;10.40;;
17592;SDS011;8915;51.760;14.300;2024-03-23T01:24:43;18.17;;;10.00;;
17592;SDS011;8915;51.760;14.300;2024-03-23T01:27:11;21.67;;;11.23;;
17592;SDS011;8915;51.760;14.300;2024-03-23T01:29:36;19.40;;;11.10;;
17592;SDS011;8915;51.760;14.300;2024-03-23T01:32:04;20.73;;;11.53;;
17592;SDS011;8915;51.760;14.300;2024-03-23T01:34:30;17.87;;;9.97;;
17592;SDS011;8915;51.760;14.300;2024-03-23T01:36:56;21.37;;;11.17;;
17592;SDS011;8915;51.760;14.300;2024-03-23T01:39:21;19.77;;;10.97;;
17592;SDS011;8915;51.760;14.300;2024-03-23T01:41:48;18.30;;;11.50;;
17592;SDS011;8915;51.760;14.300;2024-03-23T01:44:14;22.37;;;11.93;;
17592;SDS011;8915;51.760;14.300;2024-03-23T01:46:41;19.77;;;10.87;;
17592;SDS011;8915;51.760;14.300;2024-03-23T01:49:07;20.60;;;11.80;;
17592;SDS011;8915;51.760;14.300;2024-03-23T01:51:34;20.93;;;12.30;;
17592;SDS011;8915;51.760;14.300;2024-03-23T01:54:01;21.50;;;11.63;;
17592;SDS011;8915;51.760;14.300;2024-03-23T01:56:29;20.83;;;11.07;;
17592;SDS011;8915;51.760;14.300;2024-03-23T01:58:55;22.07;;;11.67;;
17592;SDS011;8915;51.760;14.300;2024-03-23T02:01:22;20.20;;;11.60;;
17592;SDS011;8915;51.760;14.300;2024-03-23T02:03:48;20.93;;;11.17;;
17592;SDS011;8915;51.760;14.300;2024-03-23T02:06:14;21.00;;;12.10;;
17592;SDS011;8915;51.760;14.300;2024-03-23T02:08:40;22.43;;;11.60;;
17592;SDS011;8915;51.760;14.300;2024-03-23T02:11:07;21.00;;;11.67;;
17592;SDS011;8915;51.760;14.300;2024-03-23T02:13:32;21.20;;;12.07;;
17592;SDS011;8915;51.760;14.300;2024-03-23T02:15:59;20.10;;;11.87;;
17592;SDS011;8915;51.760;14.300;2024-03-23T02:18:25;22.93;;;12.30;;
17592;SDS011;8915;51.760;14.300;2024-03-23T02:20:52;22.10;;;11.70;;
17592;SDS011;8915;51.760;14.300;2024-03-23T02:23:18;22.20;;;12.77;;
17592;SDS011;8915;51.760;14.300;2024-03-23T02:25:45;9.57;;;4.40;;
17592;SDS011;8915;51.760;14.300;2024-03-23T02:28:10;7.87;;;3.10;;
17592;SDS011;8915;51.760;14.300;2024-03-23T02:30:37;9.30;;;3.27;;
17592;SDS011;8915;51.760;14.300;2024-03-23T02:33:02;8.53;;;2.83;;
17592;SDS011;8915;51.760;14.300;2024-03-23T02:35:29;6.43;;;3.30;;
17592;SDS011;8915;51.760;14.300;2024-03-23T02:37:55;7.43;;;2.40;;
17592;SDS011;8915;51.760;14.300;2024-03-23T02:40:23;7.50;;;2.20;;
17592;SDS011;8915;51.760;14.300;2024-03-23T02:42:49;11.80;;;2.37;;
17592;SDS011;8915;51.760;14.300;2024-03-23T02:45:16;10.40;;;2.37;;
17592;SDS011;8915;51.760;14.300;2024-03-23T02:47:41;12.33;;;2.00;;
17592;SDS011;8915;51.760;14.300;2024-03-23T02:50:08;5.97;;;1.80;;
17592;SDS011;8915;51.760;14.300;2024-03-23T02:52:34;9.03;;;2.43;;
17592;SDS011;8915;51.760;14.300;2024-03-23T02:55:00;5.80;;;2.53;;
17592;SDS011;8915;51.760;14.300;2024-03-23T02:57:28;9.87;;;2.23;;
17592;SDS011;8915;51.760;14.300;2024-03-23T02:59:54;9.67;;;2.13;;
17592;SDS011;8915;51.760;14.300;2024-03-23T03:02:20;9.17;;;2.00;;
17592;SDS011;8915;51.760;14.300;2024-03-23T03:04:47;7.73;;;1.80;;
17592;SDS011;8915;51.760;14.300;2024-03-23T03:07:12;9.17;;;2.20;;
17592;SDS011;8915;51.760;14.300;2024-03-23T03:09:39;6.23;;;2.30;;
17592;SDS011;8915;51.760;14.300;2024-03-23T03:12:04;9.03;;;2.70;;
17592;SDS011;8915;51.760;14.300;2024-03-23T03:14:33;9.57;;;2.23;;
17592;SDS011;8915;51.760;14.300;2024-03-23T03:16:58;12.13;;;2.30;;
17592;SDS011;8915;51.760;14.300;2024-03-23T03:23:12;9.60;;;2.50;;
17592;SDS011;8915;51.760;14.300;2024-03-23T03:25:38;5.33;;;1.87;;
17592;SDS011;8915;51.760;14.300;2024-03-23T03:28:04;14.77;;;2.40;;
17592;SDS011;8915;51.760;14.300;2024-03-23T03:30:32;6.43;;;2.10;;
17592;SDS011;8915;51.760;14.300;2024-03-23T03:32:57;10.30;;;1.70;;
17592;SDS011;8915;51.760;14.300;2024-03-23T03:35:24;10.27;;;2.10;;
17592;SDS011;8915;51.760;14.300;2024-03-23T03:37:49;10.07;;;2.13;;
17592;SDS011;8915;51.760;14.300;2024-03-23T03:40:15;8.00;;;2.10;;
17592;SDS011;8915;51.760;14.300;2024-03-23T03:42:41;9.70;;;2.47;;
17592;SDS011;8915;51.760;14.300;2024-03-23T03:45:07;11.57;;;2.50;;
17592;SDS011;8915;51.760;14.300;2024-03-23T03:47:34;9.87;;;2.13;;
17592;SDS011;8915;51.760;14.300;2024-03-23T03:50:00;6.30;;;1.80;;
17592;SDS011;8915;51.760;14.300;2024-03-23T03:52:26;16.57;;;2.30;;
17592;SDS011;8915;51.760;14.300;2024-03-23T03:54:55;4.23;;;1.90;;
17592;SDS011;8915;51.760;14.300;2024-03-23T03:57:27;7.80;;;2.57;;
17592;SDS011;8915;51.760;14.300;2024-03-23T03:59:53;15.27;;;2.20;;
17592;SDS011;8915;51.760;14.300;2024-03-23T04:02:19;9.30;;;1.93;;
17592;SDS011;8915;51.760;14.300;2024-03-23T04:04:46;9.23;;;2.00;;
17592;SDS011;8915;51.760;14.300;2024-03-23T04:07:12;8.70;;;2.27;;
17592;SDS011;8915;51.760;14.300;2024-03-23T04:09:38;8.17;;;2.47;;
17592;SDS011;8915;51.760;14.300;2024-03-23T04:12:04;6.53;;;1.77;;
17592;SDS011;8915;51.760;14.300;2024-03-23T04:14:31;7.90;;;2.00;;
17592;SDS011;8915;51.760;14.300;2024-03-23T04:16:57;5.53;;;2.13;;
17592;SDS011;8915;51.760;14.300;2024-03-23T04:19:23;8.63;;;2.10;;
17592;SDS011;8915;51.760;14.300;2024-03-23T04:21:50;9.87;;;2.50;;
17592;SDS011;8915;51.760;14.300;2024-03-23T04:24:16;14.80;;;2.90;;
17592;SDS011;8915;51.760;14.300;2024-03-23T04:26:44;10.07;;;2.50;;
17592;SDS011;8915;51.760;14.300;2024-03-23T04:29:11;5.83;;;2.30;;
17592;SDS011;8915;51.760;14.300;2024-03-23T04:31:37;12.67;;;3.37;;
17592;SDS011;8915;51.760;14.300;2024-03-23T04:34:04;6.17;;;2.67;;
17592;SDS011;8915;51.760;14.300;2024-03-23T04:36:29;9.03;;;2.50;;
17592;SDS011;8915;51.760;14.300;2024-03-23T04:38:58;9.30;;;2.30;;
17592;SDS011;8915;51.760;14.300;2024-03-23T04:41:26;6.17;;;2.07;;
17592;SDS011;8915;51.760;14.300;2024-03-23T04:43:52;7.57;;;2.20;;
17592;SDS011;8915;51.760;14.300;2024-03-23T04:46:19;6.20;;;2.10;;
17592;SDS011;8915;51.760;14.300;2024-03-23T04:48:46;12.17;;;2.50;;
17592;SDS011;8915;51.760;14.300;2024-03-23T04:51:19;9.07;;;2.33;;
17592;SDS011;8915;51.760;14.300;2024-03-23T04:53:46;9.87;;;2.27;;
17592;SDS011;8915;51.760;14.300;2024-03-23T04:56:14;9.77;;;2.00;;
17592;SDS011;8915;51.760;14.300;2024-03-23T04:58:40;14.30;;;2.93;;
17592;SDS011;8915;51.760;14.300;2024-03-23T05:01:06;12.00;;;3.53;;
17592;SDS011;8915;51.760;14.300;2024-03-23T05:03:32;8.13;;;2.40;;
17592;SDS011;8915;51.760;14.300;2024-03-23T05:05:58;9.57;;;2.40;;
17592;SDS011;8915;51.760;14.300;2024-03-23T05:08:24;14.50;;;2.77;;
17592;SDS011;8915;51.760;14.300;2024-03-23T05:10:50;9.53;;;2.67;;
17592;SDS011;8915;51.760;14.300;2024-03-23T05:13:17;5.63;;;2.17;;
17592;SDS011;8915;51.760;14.300;2024-03-23T05:15:43;13.03;;;2.67;;
17592;SDS011;8915;51.760;14.300;2024-03-23T05:18:09;6.80;;;2.87;;
17592;SDS011;8915;51.760;14.300;2024-03-23T05:20:35;8.50;;;2.57;;
17592;SDS011;8915;51.760;14.300;2024-03-23T05:23:00;7.60;;;2.23;;
17592;SDS011;8915;51.760;14.300;2024-03-23T05:25:27;6.77;;;2.47;;
17592;SDS011;8915;51.760;14.300;2024-03-23T05:27:52;7.43;;;2.40;;
17592;SDS011;8915;51.760;14.300;2024-03-23T05:30:20;10.67;;;3.37;;
17592;SDS011;8915;51.760;14.300;2024-03-23T05:32:45;7.93;;;2.50;;
17592;SDS011;8915;51.760;14.300;2024-03-23T05:35:12;9.07;;;3.10;;
17592;SDS011;8915;51.760;14.300;2024-03-23T05:37:37;13.80;;;2.37;;
17592;SDS011;8915;51.760;14.300;2024-03-23T05:40:04;9.30;;;2.37;;
17592;SDS011;8915;51.760;14.300;2024-03-23T05:42:29;8.83;;;1.93;;
17592;SDS011;8915;51.760;14.300;2024-03-23T05:44:56;9.53;;;2.63;;
17592;SDS011;8915;51.760;14.300;2024-03-23T05:47:23;9.13;;;2.37;;
17592;SDS011;8915;51.760;14.300;2024-03-23T05:49:49;9.20;;;3.30;;
17592;SDS011;8915;51.760;14.300;2024-03-23T05:52:16;8.60;;;2.40;;
17592;SDS011;8915;51.760;14.300;2024-03-23T05:54:43;10.03;;;2.50;;
17592;SDS011;8915;51.760;14.300;2024-03-23T05:57:08;11.87;;;2.50;;
17592;SDS011;8915;51.760;14.300;2024-03-23T05:59:37;6.60;;;2.00;;
17592;SDS011;8915;51.760;14.300;2024-03-23T06:02:03;14.67;;;2.10;;
17592;SDS011;8915;51.760;14.300;2024-03-23T06:04:30;6.23;;;2.20;;
17592;SDS011;8915;51.760;14.300;2024-03-23T06:06:56;5.77;;;2.50;;
17592;SDS011;8915;51.760;14.300;2024-03-23T06:09:23;10.83;;;2.20;;
17592;SDS011;8915;51.760;14.300;2024-03-23T06:11:49;8.53;;;2.30;;
17592;SDS011;8915;51.760;14.300;2024-03-23T06:14:15;7.87;;;2.50;;
17592;SDS011;8915;51.760;14.300;2024-03-23T06:16:40;8.67;;;2.13;;
17592;SDS011;8915;51.760;14.300;2024-03-23T06:19:07;8.60;;;2.07;;
17592;SDS011;8915;51.760;14.300;2024-03-23T06:21:33;8.07;;;2.40;;
17592;SDS011;8915;51.760;14.300;2024-03-23T06:24:00;9.00;;;3.10;;
17592;SDS011;8915;51.760;14.300;2024-03-23T06:26:25;9.27;;;2.17;;
17592;SDS011;8915;51.760;14.300;2024-03-23T06:28:52;8.87;;;2.07;;
17592;SDS011;8915;51.760;14.300;2024-03-23T06:31:17;9.87;;;2.50;;
17592;SDS011;8915;51.760;14.300;2024-03-23T06:33:44;9.77;;;2.10;;
17592;SDS011;8915;51.760;14.300;2024-03-23T06:36:09;10.43;;;2.03;;
17592;SDS011;8915;51.760;14.300;2024-03-23T06:38:37;6.83;;;2.13;;
17592;SDS011;8915;51.760;14.300;2024-03-23T06:41:03;9.10;;;2.90;;
17592;SDS011;8915;51.760;14.300;2024-03-23T06:43:30;8.70;;;1.93;;
17592;SDS011;8915;51.760;14.300;2024-03-23T06:45:55;9.23;;;1.70;;
17592;SDS011;8915;51.760;14.300;2024-03-23T06:48:22;12.17;;;2.10;;
17592;SDS011;8915;51.760;14.300;2024-03-23T06:50:47;7.30;;;1.97;;
17592;SDS011;8915;51.760;14.300;2024-03-23T06:53:14;6.47;;;1.87;;
17592;SDS011;8915;51.760;14.300;2024-03-23T06:55:41;9.60;;;2.33;;
17592;SDS011;8915;51.760;14.300;2024-03-23T06:58:08;6.83;;;2.00;;
17592;SDS011;8915;51.760;14.300;2024-03-23T07:00:33;10.67;;;2.20;;
17592;SDS011;8915;51.760;14.300;2024-03-23T07:03:00;6.93;;;2.00;;
17592;SDS011;8915;51.760;14.300;2024-03-23T07:05:25;10.63;;;2.07;;
17592;SDS011;8915;51.760;14.300;2024-03-23T07:07:52;6.10;;;1.80;;
17592;SDS011;8915;51.760;14.300;2024-03-23T07:10:17;2.83;;;1.77;;
17592;SDS011;8915;51.760;14.300;2024-03-23T07:12:45;8.97;;;4.13;;
17592;SDS011;8915;51.760;14.300;2024-03-23T07:15:10;10.60;;;4.07;;
17592;SDS011;8915;51.760;14.300;2024-03-23T07:17:40;8.50;;;3.53;;
17592;SDS011;8915;51.760;14.300;2024-03-23T07:20:19;11.33;;;3.70;;
17592;SDS011;8915;51.760;14.300;2024-03-23T07:23:28;6.07;;;1.77;;
17592;SDS011;8915;51.760;14.300;2024-03-23T07:26:14;10.93;;;3.13;;
17592;SDS011;8915;51.760;14.300;2024-03-23T07:28:59;9.37;;;2.50;;
17592;SDS011;8915;51.760;14.300;2024-03-23T07:31:38;6.10;;;2.90;;
17592;SDS011;8915;51.760;14.300;2024-03-23T07:34:19;7.63;;;3.20;;
17592;SDS011;8915;51.760;14.300;2024-03-23T07:36:55;8.77;;;2.93;;
17592;SDS011;8915;51.760;14.300;2024-03-23T07:39:26;12.37;;;8.23;;
17592;SDS011;8915;51.760;14.300;2024-03-23T07:42:07;5.70;;;2.87;;
17592;SDS011;8915;51.760;14.300;2024-03-23T07:47:26;5.57;;;2.50;;
17592;SDS011;8915;51.760;14.300;2024-03-23T07:50:01;6.80;;;2.90;;
17592;SDS011;8915;51.760;14.300;2024-03-23T07:53:04;9.03;;;3.70;;
17592;SDS011;8915;51.760;14.300;2024-03-23T07:55:32;8.90;;;5.13;;
17592;SDS011;8915;51.760;14.300;2024-03-23T07:58:11;8.77;;;2.70;;
17592;SDS011;8915;51.760;14.300;2024-03-23T08:00:50;9.20;;;4.03;;
17592;SDS011;8915;51.760;14.300;2024-03-23T08:03:15;10.70;;;6.63;;
17592;SDS011;8915;51.760;14.300;2024-03-23T08:05:42;7.93;;;3.23;;
17592;SDS011;8915;51.760;14.300;2024-03-23T08:08:07;11.43;;;3.13;;
17592;SDS011;8915;51.760;14.300;2024-03-23T08:10:34;7.50;;;2.40;;
17592;SDS011;8915;51.760;14.300;2024-03-23T08:12:59;7.53;;;2.37;;
17592;SDS011;8915;51.760;14.300;2024-03-23T08:15:26;5.53;;;2.10;;
17592;SDS011;8915;51.760;14.300;2024-03-23T08:17:52;7.93;;;2.23;;
17592;SDS011;8915;51.760;14.300;2024-03-23T08:20:19;5.83;;;2.40;;
17592;SDS011;8915;51.760;14.300;2024-03-23T08:22:44;5.97;;;2.17;;
17592;SDS011;8915;51.760;14.300;2024-03-23T08:25:11;7.53;;;2.17;;
17592;SDS011;8915;51.760;14.300;2024-03-23T08:27:36;3.57;;;1.97;;
17592;SDS011;8915;51.760;14.300;2024-03-23T08:30:03;10.30;;;2.50;;
17592;SDS011;8915;51.760;14.300;2024-03-23T08:32:29;8.27;;;1.83;;
17592;SDS011;8915;51.760;14.300;2024-03-23T08:34:56;4.23;;;1.70;;
17592;SDS011;8915;51.760;14.300;2024-03-23T08:37:22;4.40;;;2.00;;
17592;SDS011;8915;51.760;14.300;2024-03-23T08:39:50;8.03;;;2.10;;
17592;SDS011;8915;51.760;14.300;2024-03-23T08:42:16;8.37;;;2.47;;
17592;SDS011;8915;51.760;14.300;2024-03-23T08:44:42;9.70;;;2.30;;
17592;SDS011;8915;51.760;14.300;2024-03-23T08:47:11;6.23;;;2.00;;
17592;SDS011;8915;51.760;14.300;2024-03-23T08:49:37;9.67;;;2.27;;
17592;SDS011;8915;51.760;14.300;2024-03-23T08:52:05;7.40;;;2.60;;
17592;SDS011;8915;51.760;14.300;2024-03-23T08:54:31;8.23;;;2.70;;
17592;SDS011;8915;51.760;14.300;2024-03-23T08:56:56;9.87;;;2.50;;
17592;SDS011;8915;51.760;14.300;2024-03-23T08:59:23;7.73;;;2.43;;
17592;SDS011;8915;51.760;14.300;2024-03-23T09:01:48;10.47;;;2.57;;
17592;SDS011;8915;51.760;14.300;2024-03-23T09:04:15;7.73;;;2.50;;
17592;SDS011;8915;51.760;14.300;2024-03-23T09:06:41;7.67;;;2.33;;
17592;SDS011;8915;51.760;14.300;2024-03-23T09:09:09;9.23;;;2.83;;
17592;SDS011;8915;51.760;14.300;2024-03-23T09:11:35;9.67;;;2.83;;
17592;SDS011;8915;51.760;14.300;2024-03-23T09:14:02;8.40;;;2.37;;
17592;SDS011;8915;51.760;14.300;2024-03-23T09:16:28;5.33;;;2.67;;
17592;SDS011;8915;51.760;14.300;2024-03-23T09:18:54;8.67;;;2.87;;
17592;SDS011;8915;51.760;14.300;2024-03-23T09:21:19;7.37;;;2.67;;
17592;SDS011;8915;51.760;14.300;2024-03-23T09:23:46;11.97;;;2.33;;
17592;SDS011;8915;51.760;14.300;2024-03-23T09:26:13;9.57;;;2.33;;
17592;SDS011;8915;51.760;14.300;2024-03-23T09:28:39;7.70;;;2.63;;
17592;SDS011;8915;51.760;14.300;2024-03-23T09:31:07;6.80;;;2.40;;
17592;SDS011;8915;51.760;14.300;2024-03-23T09:33:42;5.33;;;2.47;;
17592;SDS011;8915;51.760;14.300;2024-03-23T09:36:23;7.73;;;2.63;;
17592;SDS011;8915;51.760;14.300;2024-03-23T09:39:17;8.40;;;3.37;;
17592;SDS011;8915;51.760;14.300;2024-03-23T09:41:52;10.13;;;3.20;;
17592;SDS011;8915;51.760;14.300;2024-03-23T09:44:28;11.10;;;4.13;;
17592;SDS011;8915;51.760;14.300;2024-03-23T09:46:57;8.10;;;4.40;;
17592;SDS011;8915;51.760;14.300;2024-03-23T09:49:45;8.30;;;2.90;;
17592;SDS011;8915;51.760;14.300;2024-03-23T09:52:50;5.97;;;2.40;;
17592;SDS011;8915;51.760;14.300;2024-03-23T09:55:16;10.03;;;2.93;;
17592;SDS011;8915;51.760;14.300;2024-03-23T09:57:43;5.80;;;2.40;;
17592;SDS011;8915;51.760;14.300;2024-03-23T10:00:10;5.80;;;2.40;;
17592;SDS011;8915;51.760;14.300;2024-03-23T10:02:40;9.53;;;3.20;;
17592;SDS011;8915;51.760;14.300;2024-03-23T10:05:15;7.63;;;3.20;;
17592;SDS011;8915;51.760;14.300;2024-03-23T10:07:45;10.50;;;2.83;;
17592;SDS011;8915;51.760;14.300;2024-03-23T10:10:12;7.37;;;3.27;;
17592;SDS011;8915;51.760;14.300;2024-03-23T10:12:40;9.50;;;3.33;;
17592;SDS011;8915;51.760;14.300;2024-03-23T10:15:15;7.40;;;3.60;;
17592;SDS011;8915;51.760;14.300;2024-03-23T10:17:44;12.30;;;4.43;;
17592;SDS011;8915;51.760;14.300;2024-03-23T10:20:11;9.70;;;3.93;;
17592;SDS011;8915;51.760;14.300;2024-03-23T10:22:37;9.50;;;3.83;;
17592;SDS011;8915;51.760;14.300;2024-03-23T10:25:07;2.57;;;1.50;;
17592;SDS011;8915;51.760;14.300;2024-03-23T10:27:33;4.57;;;1.53;;
17592;SDS011;8915;51.760;14.300;2024-03-23T10:30:07;1.00;;;0.90;;
17592;SDS011;8915;51.760;14.300;2024-03-23T10:32:34;2.00;;;0.70;;
17592;SDS011;8915;51.760;14.300;2024-03-23T10:35:16;1.70;;;0.80;;
17592;SDS011;8915;51.760;14.300;2024-03-23T10:37:43;3.17;;;0.90;;
17592;SDS011;8915;51.760;14.300;2024-03-23T10:40:11;1.10;;;1.00;;
17592;SDS011;8915;51.760;14.300;2024-03-23T10:42:38;4.50;;;1.10;;
17592;SDS011;8915;51.760;14.300;2024-03-23T10:45:06;1.10;;;0.70;;
17592;SDS011;8915;51.760;14.300;2024-03-23T10:47:34;2.43;;;0.80;;
17592;SDS011;8915;51.760;14.300;2024-03-23T10:50:01;1.63;;;1.10;;
17592;SDS011;8915;51.760;14.300;2024-03-23T10:52:30;0.80;;;0.80;;
17592;SDS011;8915;51.760;14.300;2024-03-23T10:54:56;1.53;;;0.77;;
17592;SDS011;8915;51.760;14.300;2024-03-23T10:57:25;1.23;;;0.90;;
17592;SDS011;8915;51.760;14.300;2024-03-23T10:59:55;1.03;;;0.70;;
17592;SDS011;8915;51.760;14.300;2024-03-23T11:02:25;1.10;;;0.63;;
17592;SDS011;8915;51.760;14.300;2024-03-23T11:04:51;0.73;;;0.50;;
17592;SDS011;8915;51.760;14.300;2024-03-23T11:07:30;1.07;;;0.60;;
17592;SDS011;8915;51.760;14.300;2024-03-23T11:09:56;0.70;;;0.70;;
17592;SDS011;8915;51.760;14.300;2024-03-23T11:12:27;0.53;;;0.53;;
17592;SDS011;8915;51.760;14.300;2024-03-23T11:14:59;0.70;;;0.50;;
17592;SDS011;8915;51.760;14.300;2024-03-23T11:17:28;1.43;;;0.50;;
17592;SDS011;8915;51.760;14.300;2024-03-23T11:19:57;0.80;;;0.47;;
17592;SDS011;8915;51.760;14.300;2024-03-23T11:22:46;0.30;;;0.30;;
17592;SDS011;8915;51.760;14.300;2024-03-23T11:25:13;0.53;;;0.50;;
17592;SDS011;8915;51.760;14.300;2024-03-23T11:27:44;0.63;;;0.40;;
17592;SDS011;8915;51.760;14.300;2024-03-23T11:30:11;0.50;;;0.50;;
17592;SDS011;8915;51.760;14.300;2024-03-23T11:32:40;0.57;;;0.57;;
17592;SDS011;8915;51.760;14.300;2024-03-23T11:35:11;0.60;;;0.40;;
17592;SDS011;8915;51.760;14.300;2024-03-23T11:38:04;0.60;;;0.50;;
17592;SDS011;8915;51.760;14.300;2024-03-23T11:40:30;1.30;;;0.77;;
17592;SDS011;8915;51.760;14.300;2024-03-23T11:43:06;1.33;;;0.70;;
17592;SDS011;8915;51.760;14.300;2024-03-23T11:45:42;3.13;;;1.77;;
17592;SDS011;8915;51.760;14.300;2024-03-23T11:48:26;4.90;;;2.47;;
17592;SDS011;8915;51.760;14.300;2024-03-23T11:51:20;16.03;;;8.50;;
17592;SDS011;8915;51.760;14.300;2024-03-23T11:54:10;2.90;;;2.07;;
17592;SDS011;8915;51.760;14.300;2024-03-23T11:56:57;3.17;;;2.67;;
17592;SDS011;8915;51.760;14.300;2024-03-23T11:59:32;3.27;;;2.67;;
17592;SDS011;8915;51.760;14.300;2024-03-23T12:02:11;2.50;;;2.30;;
17592;SDS011;8915;51.760;14.300;2024-03-23T12:04:48;2.60;;;1.23;;
17592;SDS011;8915;51.760;14.300;2024-03-23T12:07:27;1.07;;;0.90;;
17592;SDS011;8915;51.760;14.300;2024-03-23T12:10:03;1.10;;;1.00;;
17592;SDS011;8915;51.760;14.300;2024-03-23T12:12:36;2.10;;;1.30;;
17592;SDS011;8915;51.760;14.300;2024-03-23T12:15:15;1.20;;;1.10;;
17592;SDS011;8915;51.760;14.300;2024-03-23T12:18:05;0.90;;;0.90;;
17592;SDS011;8915;51.760;14.300;2024-03-23T12:21:07;1.70;;;1.20;;
17592;SDS011;8915;51.760;14.300;2024-03-23T12:23:43;0.73;;;0.73;;
17592;SDS011;8915;51.760;14.300;2024-03-23T12:26:21;2.13;;;1.10;;
17592;SDS011;8915;51.760;14.300;2024-03-23T12:28:57;4.23;;;2.83;;
17592;SDS011;8915;51.760;14.300;2024-03-23T12:31:31;1.57;;;1.17;;
17592;SDS011;8915;51.760;14.300;2024-03-23T12:33:59;1.30;;;1.20;;
17592;SDS011;8915;51.760;14.300;2024-03-23T12:36:46;1.83;;;1.00;;
17592;SDS011;8915;51.760;14.300;2024-03-23T12:39:24;5.83;;;1.33;;
17592;SDS011;8915;51.760;14.300;2024-03-23T12:42:01;3.83;;;1.50;;
17592;SDS011;8915;51.760;14.300;2024-03-23T12:44:46;3.30;;;1.90;;
17592;SDS011;8915;51.760;14.300;2024-03-23T12:47:39;3.07;;;1.50;;
17592;SDS011;8915;51.760;14.300;2024-03-23T12:50:19;2.50;;;1.53;;
17592;SDS011;8915;51.760;14.300;2024-03-23T12:52:51;5.17;;;2.00;;
17592;SDS011;8915;51.760;14.300;2024-03-23T12:55:30;3.40;;;2.20;;
17592;SDS011;8915;51.760;14.300;2024-03-23T12:58:00;2.17;;;1.67;;
17592;SDS011;8915;51.760;14.300;2024-03-23T13:00:37;1.13;;;1.00;;
17592;SDS011;8915;51.760;14.300;2024-03-23T13:03:26;1.97;;;0.87;;
17592;SDS011;8915;51.760;14.300;2024-03-23T13:06:15;3.57;;;2.40;;
17592;SDS011;8915;51.760;14.300;2024-03-23T13:08:49;4.80;;;2.20;;
17592;SDS011;8915;51.760;14.300;2024-03-23T13:11:31;6.03;;;1.60;;
17592;SDS011;8915;51.760;14.300;2024-03-23T13:14:08;4.20;;;1.83;;
17592;SDS011;8915;51.760;14.300;2024-03-23T13:16:45;3.53;;;1.70;;
17592;SDS011;8915;51.760;14.300;2024-03-23T13:19:20;2.00;;;0.77;;
17592;SDS011;8915;51.760;14.300;2024-03-23T13:22:05;5.07;;;1.60;;
17592;SDS011;8915;51.760;14.300;2024-03-23T13:24:55;5.23;;;2.30;;
17592;SDS011;8915;51.760;14.300;2024-03-23T13:27:21;4.83;;;1.17;;
17592;SDS011;8915;51.760;14.300;2024-03-23T13:29:46;3.60;;;1.20;;
17592;SDS011;8915;51.760;14.300;2024-03-23T13:32:13;4.73;;;2.10;;
17592;SDS011;8915;51.760;14.300;2024-03-23T13:34:41;6.00;;;2.13;;
17592;SDS011;8915;51.760;14.300;2024-03-23T13:37:21;7.77;;;2.90;;
17592;SDS011;8915;51.760;14.300;2024-03-23T13:39:52;13.53;;;3.60;;
17592;SDS011;8915;51.760;14.300;2024-03-23T13:42:40;9.17;;;1.87;;
17592;SDS011;8915;51.760;14.300;2024-03-23T13:45:15;3.53;;;1.40;;
17592;SDS011;8915;51.760;14.300;2024-03-23T13:47:47;4.43;;;1.80;;
17592;SDS011;8915;51.760;14.300;2024-03-23T13:50:27;7.87;;;1.93;;
17592;SDS011;8915;51.760;14.300;2024-03-23T13:52:55;10.83;;;2.50;;
17592;SDS011;8915;51.760;14.300;2024-03-23T13:55:22;7.43;;;1.93;;
17592;SDS011;8915;51.760;14.300;2024-03-23T13:57:48;7.97;;;1.90;;
17592;SDS011;8915;51.760;14.300;2024-03-23T14:00:16;7.83;;;3.73;;
17592;SDS011;8915;51.760;14.300;2024-03-23T14:02:43;7.37;;;2.30;;
17592;SDS011;8915;51.760;14.300;2024-03-23T14:05:08;4.57;;;1.93;;
17592;SDS011;8915;51.760;14.300;2024-03-23T14:07:36;6.53;;;3.60;;
17592;SDS011;8915;51.760;14.300;2024-03-23T14:10:03;17.67;;;4.13;;
17592;SDS011;8915;51.760;14.300;2024-03-23T14:12:40;11.97;;;3.00;;
17592;SDS011;8915;51.760;14.300;2024-03-23T14:15:23;6.50;;;2.63;;
17592;SDS011;8915;51.760;14.300;2024-03-23T14:18:11;3.67;;;2.40;;
17592;SDS011;8915;51.760;14.300;2024-03-23T14:20:43;5.63;;;2.27;;
17592;SDS011;8915;51.760;14.300;2024-03-23T14:23:22;10.87;;;3.20;;
17592;SDS011;8915;51.760;14.300;2024-03-23T14:25:47;3.87;;;2.20;;
17592;SDS011;8915;51.760;14.300;2024-03-23T14:28:15;5.87;;;2.10;;
17592;SDS011;8915;51.760;14.300;2024-03-23T14:30:41;4.80;;;2.10;;
17592;SDS011;8915;51.760;14.300;2024-03-23T14:33:07;13.83;;;2.13;;
17592;SDS011;8915;51.760;14.300;2024-03-23T14:35:33;4.67;;;1.90;;
17592;SDS011;8915;51.760;14.300;2024-03-23T14:38:02;5.67;;;2.00;;
17592;SDS011;8915;51.760;14.300;2024-03-23T14:40:28;5.50;;;2.17;;
17592;SDS011;8915;51.760;14.300;2024-03-23T14:43:38;12.03;;;2.07;;
17592;SDS011;8915;51.760;14.300;2024-03-23T14:46:32;2.67;;;1.40;;
17592;SDS011;8915;51.760;14.300;2024-03-23T14:49:08;4.27;;;1.60;;
17592;SDS011;8915;51.760;14.300;2024-03-23T14:51:33;5.73;;;2.03;;
17592;SDS011;8915;51.760;14.300;2024-03-23T14:54:00;11.00;;;2.60;;
17592;SDS011;8915;51.760;14.300;2024-03-23T14:56:25;7.77;;;2.00;;
17592;SDS011;8915;51.760;14.300;2024-03-23T14:58:53;7.10;;;2.20;;
17592;SDS011;8915;51.760;14.300;2024-03-23T15:01:21;5.80;;;1.97;;
17592;SDS011;8915;51.760;14.300;2024-03-23T15:03:53;4.20;;;1.83;;
17592;SDS011;8915;51.760;14.300;2024-03-23T15:06:29;9.10;;;2.20;;
17592;SDS011;8915;51.760;14.300;2024-03-23T15:09:06;5.00;;;1.73;;
17592;SDS011;8915;51.760;14.300;2024-03-23T15:11:46;8.63;;;2.20;;
17592;SDS011;8915;51.760;14.300;2024-03-23T15:14:21;8.93;;;2.30;;
17592;SDS011;8915;51.760;14.300;2024-03-23T15:16:57;9.40;;;2.10;;
17592;SDS011;8915;51.760;14.300;2024-03-23T15:19:24;10.40;;;3.13;;
17592;SDS011;8915;51.760;14.300;2024-03-23T15:21:49;6.23;;;2.10;;
17592;SDS011;8915;51.760;14.300;2024-03-23T15:24:40;14.80;;;2.27;;
17592;SDS011;8915;51.760;14.300;2024-03-23T15:27:12;4.03;;;2.10;;
17592;SDS011;8915;51.760;14.300;2024-03-23T15:29:49;6.23;;;2.40;;
17592;SDS011;8915;51.760;14.300;2024-03-23T15:32:15;6.47;;;2.40;;
17592;SDS011;8915;51.760;14.300;2024-03-23T15:34:42;10.13;;;2.57;;
17592;SDS011;8915;51.760;14.300;2024-03-23T15:37:08;6.53;;;2.10;;
17592;SDS011;8915;51.760;14.300;2024-03-23T15:39:34;7.43;;;2.70;;
17592;SDS011;8915;51.760;14.300;2024-03-23T15:41:59;6.20;;;2.37;;
17592;SDS011;8915;51.760;14.300;2024-03-23T15:44:26;8.00;;;2.53;;
17592;SDS011;8915;51.760;14.300;2024-03-23T15:46:52;3.30;;;1.87;;
17592;SDS011;8915;51.760;14.300;2024-03-23T15:49:22;4.87;;;2.10;;
17592;SDS011;8915;51.760;14.300;2024-03-23T15:52:03;4.97;;;1.90;;
17592;SDS011;8915;51.760;14.300;2024-03-23T15:54:40;6.60;;;2.27;;
17592;SDS011;8915;51.760;14.300;2024-03-23T15:57:12;3.83;;;1.70;;
17592;SDS011;8915;51.760;14.300;2024-03-23T16:00:01;4.83;;;2.00;;